sensor_id;sensor_type;location;lat;lon;timestamp;P1;durP1;ratioP1;P2;durP2;ratioP2
65799;SDS011;52544;48.116;11.660;2022-08-25T00:00:36;7.82;;;4.55;;
65799;SDS011;52544;48.116;11.660;2022-08-25T00:03:05;8.55;;;4.70;;
65799;SDS011;52544;48.116;11.660;2022-08-25T00:05:30;6.25;;;4.65;;
65799;SDS011;52544;48.116;11.660;2022-08-25T00:07:56;8.55;;;4.72;;
65799;SDS011;52544;48.116;11.660;2022-08-25T00:10:22;7.25;;;4.72;;
65799;SDS011;52544;48.116;11.660;2022-08-25T00:12:47;8.02;;;4.50;;
65799;SDS011;52544;48.116;11.660;2022-08-25T00:15:13;7.07;;;4.95;;
65799;SDS011;52544;48.116;11.660;2022-08-25T00:17:38;7.80;;;4.93;;
65799;SDS011;52544;48.116;11.660;2022-08-25T00:20:04;8.13;;;4.97;;
65799;SDS011;52544;48.116;11.660;2022-08-25T00:22:30;10.52;;;6.05;;
65799;SDS011;52544;48.116;11.660;2022-08-25T00:24:56;9.68;;;5.38;;
65799;SDS011;52544;48.116;11.660;2022-08-25T00:27:21;7.55;;;4.93;;
65799;SDS011;52544;48.116;11.660;2022-08-25T00:29:46;8.73;;;4.80;;
65799;SDS011;52544;48.116;11.660;2022-08-25T00:32:12;7.88;;;4.75;;
65799;SDS011;52544;48.116;11.660;2022-08-25T00:34:37;6.72;;;4.57;;
65799;SDS011;52544;48.116;11.660;2022-08-25T00:37:04;7.70;;;5.22;;
65799;SDS011;52544;48.116;11.660;2022-08-25T00:39:31;6.93;;;4.85;;
65799;SDS011;52544;48.116;11.660;2022-08-25T00:41:57;7.90;;;5.03;;
65799;SDS011;52544;48.116;11.660;2022-08-25T00:44:24;7.53;;;5.38;;
65799;SDS011;52544;48.116;11.660;2022-08-25T00:46:52;6.75;;;4.82;;
65799;SDS011;52544;48.116;11.660;2022-08-25T00:49:23;7.90;;;5.07;;
65799;SDS011;52544;48.116;11.660;2022-08-25T00:51:54;7.60;;;5.05;;
65799;SDS011;52544;48.116;11.660;2022-08-25T00:54:25;8.13;;;5.00;;
65799;SDS011;52544;48.116;11.660;2022-08-25T00:56:56;6.60;;;4.45;;
65799;SDS011;52544;48.116;11.660;2022-08-25T00:59:23;8.18;;;5.22;;
65799;SDS011;52544;48.116;11.660;2022-08-25T01:01:50;6.95;;;5.13;;
65799;SDS011;52544;48.116;11.660;2022-08-25T01:04:16;7.47;;;5.03;;
65799;SDS011;52544;48.116;11.660;2022-08-25T01:06:42;8.40;;;5.13;;
65799;SDS011;52544;48.116;11.660;2022-08-25T01:09:10;7.15;;;4.78;;
65799;SDS011;52544;48.116;11.660;2022-08-25T01:11:38;8.88;;;5.15;;
65799;SDS011;52544;48.116;11.660;2022-08-25T01:14:06;7.45;;;5.13;;
65799;SDS011;52544;48.116;11.660;2022-08-25T01:16:34;7.28;;;4.90;;
65799;SDS011;52544;48.116;11.660;2022-08-25T01:19:00;7.28;;;4.90;;
65799;SDS011;52544;48.116;11.660;2022-08-25T01:21:27;7.18;;;5.28;;
65799;SDS011;52544;48.116;11.660;2022-08-25T01:23:56;6.95;;;4.95;;
65799;SDS011;52544;48.116;11.660;2022-08-25T01:26:28;9.43;;;5.15;;
65799;SDS011;52544;48.116;11.660;2022-08-25T01:28:55;8.45;;;5.05;;
65799;SDS011;52544;48.116;11.660;2022-08-25T01:31:40;10.75;;;5.65;;
65799;SDS011;52544;48.116;11.660;2022-08-25T01:34:06;8.60;;;5.38;;
65799;SDS011;52544;48.116;11.660;2022-08-25T01:36:33;10.38;;;5.80;;
65799;SDS011;52544;48.116;11.660;2022-08-25T01:38:59;9.07;;;5.55;;
65799;SDS011;52544;48.116;11.660;2022-08-25T01:41:30;9.02;;;5.38;;
65799;SDS011;52544;48.116;11.660;2022-08-25T01:44:13;9.75;;;5.53;;
65799;SDS011;52544;48.116;11.660;2022-08-25T01:46:39;15.52;;;5.88;;
65799;SDS011;52544;48.116;11.660;2022-08-25T01:49:06;7.45;;;5.10;;
65799;SDS011;52544;48.116;11.660;2022-08-25T01:51:37;7.82;;;5.18;;
65799;SDS011;52544;48.116;11.660;2022-08-25T01:54:07;6.90;;;5.18;;
65799;SDS011;52544;48.116;11.660;2022-08-25T01:56:32;8.52;;;5.50;;
65799;SDS011;52544;48.116;11.660;2022-08-25T01:58:58;7.85;;;5.13;;
65799;SDS011;52544;48.116;11.660;2022-08-25T02:01:24;8.00;;;5.00;;
65799;SDS011;52544;48.116;11.660;2022-08-25T02:03:51;8.63;;;5.25;;
65799;SDS011;52544;48.116;11.660;2022-08-25T02:06:19;10.75;;;5.80;;
65799;SDS011;52544;48.116;11.660;2022-08-25T02:08:51;6.75;;;5.20;;
65799;SDS011;52544;48.116;11.660;2022-08-25T02:11:17;8.93;;;5.30;;
65799;SDS011;52544;48.116;11.660;2022-08-25T02:13:43;9.27;;;5.03;;
65799;SDS011;52544;48.116;11.660;2022-08-25T02:16:09;8.02;;;5.18;;
65799;SDS011;52544;48.116;11.660;2022-08-25T02:18:41;8.60;;;4.70;;
65799;SDS011;52544;48.116;11.660;2022-08-25T02:21:06;7.35;;;5.05;;
65799;SDS011;52544;48.116;11.660;2022-08-25T02:23:32;8.60;;;5.07;;
65799;SDS011;52544;48.116;11.660;2022-08-25T02:25:57;7.43;;;4.38;;
65799;SDS011;52544;48.116;11.660;2022-08-25T02:28:23;7.45;;;4.82;;
65799;SDS011;52544;48.116;11.660;2022-08-25T02:30:49;9.95;;;4.85;;
65799;SDS011;52544;48.116;11.660;2022-08-25T02:33:16;8.15;;;5.07;;
65799;SDS011;52544;48.116;11.660;2022-08-25T02:35:42;8.43;;;4.90;;
65799;SDS011;52544;48.116;11.660;2022-08-25T02:38:07;8.75;;;4.85;;
65799;SDS011;52544;48.116;11.660;2022-08-25T02:40:33;6.60;;;4.45;;
65799;SDS011;52544;48.116;11.660;2022-08-25T02:42:58;9.68;;;4.93;;
65799;SDS011;52544;48.116;11.660;2022-08-25T02:45:24;7.90;;;4.45;;
65799;SDS011;52544;48.116;11.660;2022-08-25T02:47:50;8.70;;;5.38;;
65799;SDS011;52544;48.116;11.660;2022-08-25T02:50:16;7.25;;;5.10;;
65799;SDS011;52544;48.116;11.660;2022-08-25T02:52:41;8.35;;;5.25;;
65799;SDS011;52544;48.116;11.660;2022-08-25T02:55:08;8.48;;;5.30;;
65799;SDS011;52544;48.116;11.660;2022-08-25T02:57:36;7.30;;;5.50;;
65799;SDS011;52544;48.116;11.660;2022-08-25T03:00:03;7.85;;;5.32;;
65799;SDS011;52544;48.116;11.660;2022-08-25T03:02:29;9.80;;;5.13;;
65799;SDS011;52544;48.116;11.660;2022-08-25T03:04:55;8.18;;;5.20;;
65799;SDS011;52544;48.116;11.660;2022-08-25T03:07:21;6.80;;;4.95;;
65799;SDS011;52544;48.116;11.660;2022-08-25T03:09:47;7.18;;;4.88;;
65799;SDS011;52544;48.116;11.660;2022-08-25T03:12:13;7.00;;;4.90;;
65799;SDS011;52544;48.116;11.660;2022-08-25T03:14:39;10.30;;;5.25;;
65799;SDS011;52544;48.116;11.660;2022-08-25T03:17:05;7.03;;;4.93;;
65799;SDS011;52544;48.116;11.660;2022-08-25T03:19:31;7.68;;;5.30;;
65799;SDS011;52544;48.116;11.660;2022-08-25T03:21:57;8.10;;;4.82;;
65799;SDS011;52544;48.116;11.660;2022-08-25T03:24:24;8.40;;;5.10;;
65799;SDS011;52544;48.116;11.660;2022-08-25T03:26:49;7.75;;;5.53;;
65799;SDS011;52544;48.116;11.660;2022-08-25T03:29:18;7.80;;;5.35;;
65799;SDS011;52544;48.116;11.660;2022-08-25T03:31:45;6.70;;;4.85;;
65799;SDS011;52544;48.116;11.660;2022-08-25T03:34:12;11.23;;;5.38;;
65799;SDS011;52544;48.116;11.660;2022-08-25T03:36:41;8.38;;;5.40;;
65799;SDS011;52544;48.116;11.660;2022-08-25T03:39:07;8.25;;;5.13;;
65799;SDS011;52544;48.116;11.660;2022-08-25T03:41:32;8.00;;;5.50;;
65799;SDS011;52544;48.116;11.660;2022-08-25T03:43:58;9.52;;;4.82;;
65799;SDS011;52544;48.116;11.660;2022-08-25T03:46:28;8.93;;;5.22;;
65799;SDS011;52544;48.116;11.660;2022-08-25T03:48:56;8.65;;;4.97;;
65799;SDS011;52544;48.116;11.660;2022-08-25T03:51:26;9.27;;;5.68;;
65799;SDS011;52544;48.116;11.660;2022-08-25T03:53:56;7.22;;;4.97;;
65799;SDS011;52544;48.116;11.660;2022-08-25T03:56:23;10.60;;;5.82;;
65799;SDS011;52544;48.116;11.660;2022-08-25T03:58:49;7.95;;;5.07;;
65799;SDS011;52544;48.116;11.660;2022-08-25T04:01:15;8.50;;;5.30;;
65799;SDS011;52544;48.116;11.660;2022-08-25T04:03:41;8.00;;;5.13;;
65799;SDS011;52544;48.116;11.660;2022-08-25T04:06:07;8.65;;;5.20;;
65799;SDS011;52544;48.116;11.660;2022-08-25T04:08:33;10.70;;;6.00;;
65799;SDS011;52544;48.116;11.660;2022-08-25T04:11:04;10.77;;;5.93;;
65799;SDS011;52544;48.116;11.660;2022-08-25T04:13:30;7.65;;;5.50;;
65799;SDS011;52544;48.116;11.660;2022-08-25T04:15:56;10.52;;;5.68;;
65799;SDS011;52544;48.116;11.660;2022-08-25T04:18:21;8.98;;;6.00;;
65799;SDS011;52544;48.116;11.660;2022-08-25T04:20:47;9.10;;;6.07;;
65799;SDS011;52544;48.116;11.660;2022-08-25T04:23:12;8.80;;;5.93;;
65799;SDS011;52544;48.116;11.660;2022-08-25T04:25:38;10.27;;;6.65;;
65799;SDS011;52544;48.116;11.660;2022-08-25T04:28:08;9.63;;;5.95;;
65799;SDS011;52544;48.116;11.660;2022-08-25T04:30:34;7.63;;;5.20;;
65799;SDS011;52544;48.116;11.660;2022-08-25T04:33:00;10.07;;;5.82;;
65799;SDS011;52544;48.116;11.660;2022-08-25T04:35:25;9.90;;;5.80;;
65799;SDS011;52544;48.116;11.660;2022-08-25T04:37:51;12.73;;;5.70;;
65799;SDS011;52544;48.116;11.660;2022-08-25T04:40:16;9.25;;;5.78;;
65799;SDS011;52544;48.116;11.660;2022-08-25T04:42:42;10.43;;;6.28;;
65799;SDS011;52544;48.116;11.660;2022-08-25T04:45:09;11.63;;;6.97;;
65799;SDS011;52544;48.116;11.660;2022-08-25T04:47:37;10.75;;;6.85;;
65799;SDS011;52544;48.116;11.660;2022-08-25T04:50:04;12.43;;;6.78;;
65799;SDS011;52544;48.116;11.660;2022-08-25T04:52:31;12.88;;;7.05;;
65799;SDS011;52544;48.116;11.660;2022-08-25T04:54:56;14.55;;;8.25;;
65799;SDS011;52544;48.116;11.660;2022-08-25T04:57:21;11.98;;;7.07;;
65799;SDS011;52544;48.116;11.660;2022-08-25T04:59:47;13.10;;;7.03;;
65799;SDS011;52544;48.116;11.660;2022-08-25T05:02:12;11.70;;;7.43;;
65799;SDS011;52544;48.116;11.660;2022-08-25T05:04:38;13.55;;;8.50;;
65799;SDS011;52544;48.116;11.660;2022-08-25T05:07:04;17.08;;;8.57;;
65799;SDS011;52544;48.116;11.660;2022-08-25T05:09:30;15.35;;;8.95;;
65799;SDS011;52544;48.116;11.660;2022-08-25T05:11:55;15.77;;;8.75;;
65799;SDS011;52544;48.116;11.660;2022-08-25T05:14:21;15.77;;;9.10;;
65799;SDS011;52544;48.116;11.660;2022-08-25T05:16:48;15.63;;;9.52;;
65799;SDS011;52544;48.116;11.660;2022-08-25T05:19:13;14.90;;;9.30;;
65799;SDS011;52544;48.116;11.660;2022-08-25T05:21:39;14.18;;;8.70;;
65799;SDS011;52544;48.116;11.660;2022-08-25T05:24:05;16.70;;;9.65;;
65799;SDS011;52544;48.116;11.660;2022-08-25T05:26:32;18.42;;;9.20;;
65799;SDS011;52544;48.116;11.660;2022-08-25T05:28:59;16.42;;;8.93;;
65799;SDS011;52544;48.116;11.660;2022-08-25T05:31:26;14.95;;;9.23;;
65799;SDS011;52544;48.116;11.660;2022-08-25T05:33:52;16.80;;;8.75;;
65799;SDS011;52544;48.116;11.660;2022-08-25T05:36:19;15.70;;;9.52;;
65799;SDS011;52544;48.116;11.660;2022-08-25T05:38:45;17.23;;;9.70;;
65799;SDS011;52544;48.116;11.660;2022-08-25T05:41:13;16.67;;;10.63;;
65799;SDS011;52544;48.116;11.660;2022-08-25T05:43:42;21.45;;;10.98;;
65799;SDS011;52544;48.116;11.660;2022-08-25T05:46:10;15.93;;;9.50;;
65799;SDS011;52544;48.116;11.660;2022-08-25T05:48:36;15.90;;;9.57;;
65799;SDS011;52544;48.116;11.660;2022-08-25T05:51:04;16.00;;;9.57;;
65799;SDS011;52544;48.116;11.660;2022-08-25T05:53:32;17.88;;;10.32;;
65799;SDS011;52544;48.116;11.660;2022-08-25T05:55:58;17.15;;;10.18;;
65799;SDS011;52544;48.116;11.660;2022-08-25T05:58:25;16.83;;;10.23;;
65799;SDS011;52544;48.116;11.660;2022-08-25T06:00:54;16.80;;;10.05;;
65799;SDS011;52544;48.116;11.660;2022-08-25T06:03:21;18.35;;;9.98;;
65799;SDS011;52544;48.116;11.660;2022-08-25T06:05:46;19.23;;;10.43;;
65799;SDS011;52544;48.116;11.660;2022-08-25T06:08:12;20.85;;;11.30;;
65799;SDS011;52544;48.116;11.660;2022-08-25T06:10:37;19.85;;;10.70;;
65799;SDS011;52544;48.116;11.660;2022-08-25T06:13:03;18.92;;;10.93;;
65799;SDS011;52544;48.116;11.660;2022-08-25T06:15:29;21.70;;;11.35;;
65799;SDS011;52544;48.116;11.660;2022-08-25T06:17:55;20.67;;;11.73;;
65799;SDS011;52544;48.116;11.660;2022-08-25T06:20:24;19.50;;;11.20;;
65799;SDS011;52544;48.116;11.660;2022-08-25T06:22:51;20.23;;;11.45;;
65799;SDS011;52544;48.116;11.660;2022-08-25T06:25:17;18.25;;;10.57;;
65799;SDS011;52544;48.116;11.660;2022-08-25T06:27:45;15.77;;;10.02;;
65799;SDS011;52544;48.116;11.660;2022-08-25T06:30:11;21.17;;;10.25;;
65799;SDS011;52544;48.116;11.660;2022-08-25T06:32:40;19.40;;;10.55;;
65799;SDS011;52544;48.116;11.660;2022-08-25T06:35:08;16.33;;;9.90;;
65799;SDS011;52544;48.116;11.660;2022-08-25T06:37:39;17.00;;;9.32;;
65799;SDS011;52544;48.116;11.660;2022-08-25T06:40:06;15.57;;;9.30;;
65799;SDS011;52544;48.116;11.660;2022-08-25T06:42:32;18.67;;;10.07;;
65799;SDS011;52544;48.116;11.660;2022-08-25T06:44:58;16.42;;;9.82;;
65799;SDS011;52544;48.116;11.660;2022-08-25T06:47:24;18.83;;;9.15;;
65799;SDS011;52544;48.116;11.660;2022-08-25T06:49:49;13.73;;;8.90;;
65799;SDS011;52544;48.116;11.660;2022-08-25T06:52:15;16.90;;;9.77;;
65799;SDS011;52544;48.116;11.660;2022-08-25T06:54:40;13.95;;;8.85;;
65799;SDS011;52544;48.116;11.660;2022-08-25T06:57:06;14.65;;;8.60;;
65799;SDS011;52544;48.116;11.660;2022-08-25T06:59:32;15.18;;;9.20;;
65799;SDS011;52544;48.116;11.660;2022-08-25T07:01:59;14.20;;;8.98;;
65799;SDS011;52544;48.116;11.660;2022-08-25T07:04:26;13.30;;;8.55;;
65799;SDS011;52544;48.116;11.660;2022-08-25T07:06:52;18.33;;;10.10;;
65799;SDS011;52544;48.116;11.660;2022-08-25T07:09:18;13.52;;;8.80;;
65799;SDS011;52544;48.116;11.660;2022-08-25T07:11:44;13.27;;;7.95;;
65799;SDS011;52544;48.116;11.660;2022-08-25T07:14:10;14.05;;;8.48;;
65799;SDS011;52544;48.116;11.660;2022-08-25T07:16:38;14.63;;;8.23;;
65799;SDS011;52544;48.116;11.660;2022-08-25T07:19:04;12.73;;;8.32;;
65799;SDS011;52544;48.116;11.660;2022-08-25T07:21:34;14.20;;;8.57;;
65799;SDS011;52544;48.116;11.660;2022-08-25T07:24:06;14.38;;;8.80;;
65799;SDS011;52544;48.116;11.660;2022-08-25T07:26:33;15.48;;;8.35;;
65799;SDS011;52544;48.116;11.660;2022-08-25T07:29:00;16.65;;;9.25;;
65799;SDS011;52544;48.116;11.660;2022-08-25T07:31:27;14.93;;;8.45;;
65799;SDS011;52544;48.116;11.660;2022-08-25T07:33:53;15.38;;;8.57;;
65799;SDS011;52544;48.116;11.660;2022-08-25T07:36:37;14.32;;;8.90;;
65799;SDS011;52544;48.116;11.660;2022-08-25T07:39:02;14.32;;;9.02;;
65799;SDS011;52544;48.116;11.660;2022-08-25T07:41:30;15.65;;;8.98;;
65799;SDS011;52544;48.116;11.660;2022-08-25T07:44:04;15.07;;;8.48;;
65799;SDS011;52544;48.116;11.660;2022-08-25T07:46:29;14.27;;;9.52;;
65799;SDS011;52544;48.116;11.660;2022-08-25T07:48:55;15.88;;;9.27;;
65799;SDS011;52544;48.116;11.660;2022-08-25T07:51:20;12.82;;;8.32;;
65799;SDS011;52544;48.116;11.660;2022-08-25T07:53:46;14.30;;;8.30;;
65799;SDS011;52544;48.116;11.660;2022-08-25T07:56:12;12.70;;;8.05;;
65799;SDS011;52544;48.116;11.660;2022-08-25T07:58:40;14.50;;;7.93;;
65799;SDS011;52544;48.116;11.660;2022-08-25T08:01:11;12.88;;;7.82;;
65799;SDS011;52544;48.116;11.660;2022-08-25T08:03:47;14.77;;;7.80;;
65799;SDS011;52544;48.116;11.660;2022-08-25T08:06:15;12.75;;;8.07;;
65799;SDS011;52544;48.116;11.660;2022-08-25T08:08:42;11.98;;;8.10;;
65799;SDS011;52544;48.116;11.660;2022-08-25T08:11:16;12.98;;;7.85;;
65799;SDS011;52544;48.116;11.660;2022-08-25T08:13:43;14.75;;;7.22;;
65799;SDS011;52544;48.116;11.660;2022-08-25T08:16:11;16.42;;;7.93;;
65799;SDS011;52544;48.116;11.660;2022-08-25T08:18:38;13.90;;;7.25;;
65799;SDS011;52544;48.116;11.660;2022-08-25T08:21:03;12.70;;;7.30;;
65799;SDS011;52544;48.116;11.660;2022-08-25T08:23:29;12.85;;;7.28;;
65799;SDS011;52544;48.116;11.660;2022-08-25T08:25:55;9.18;;;6.40;;
65799;SDS011;52544;48.116;11.660;2022-08-25T08:28:21;14.68;;;7.30;;
65799;SDS011;52544;48.116;11.660;2022-08-25T08:30:47;12.73;;;6.63;;
65799;SDS011;52544;48.116;11.660;2022-08-25T08:33:13;13.25;;;6.95;;
65799;SDS011;52544;48.116;11.660;2022-08-25T08:35:40;12.57;;;7.03;;
65799;SDS011;52544;48.116;11.660;2022-08-25T08:38:05;10.98;;;6.13;;
65799;SDS011;52544;48.116;11.660;2022-08-25T08:40:31;10.52;;;6.93;;
65799;SDS011;52544;48.116;11.660;2022-08-25T08:43:31;8.93;;;6.45;;
65799;SDS011;52544;48.116;11.660;2022-08-25T08:45:59;11.23;;;6.78;;
65799;SDS011;52544;48.116;11.660;2022-08-25T08:48:37;12.50;;;6.53;;
65799;SDS011;52544;48.116;11.660;2022-08-25T08:56:25;10.23;;;6.47;;
65799;SDS011;52544;48.116;11.660;2022-08-25T08:58:57;11.93;;;6.93;;
65799;SDS011;52544;48.116;11.660;2022-08-25T09:01:25;9.32;;;6.28;;
65799;SDS011;52544;48.116;11.660;2022-08-25T09:04:37;9.35;;;5.75;;
65799;SDS011;52544;48.116;11.660;2022-08-25T09:07:03;9.68;;;5.68;;
65799;SDS011;52544;48.116;11.660;2022-08-25T09:09:35;11.48;;;6.13;;
65799;SDS011;52544;48.116;11.660;2022-08-25T09:12:10;9.63;;;5.78;;
65799;SDS011;52544;48.116;11.660;2022-08-25T09:14:51;8.73;;;5.43;;
65799;SDS011;52544;48.116;11.660;2022-08-25T09:28:49;10.02;;;5.90;;
65799;SDS011;52544;48.116;11.660;2022-08-25T09:31:25;7.18;;;5.43;;
65799;SDS011;52544;48.116;11.660;2022-08-25T09:33:57;9.65;;;6.40;;
65799;SDS011;52544;48.116;11.660;2022-08-25T09:36:25;8.73;;;5.65;;
65799;SDS011;52544;48.116;11.660;2022-08-25T09:38:51;7.35;;;5.47;;
65799;SDS011;52544;48.116;11.660;2022-08-25T09:41:17;7.93;;;5.22;;
65799;SDS011;52544;48.116;11.660;2022-08-25T09:44:15;8.80;;;4.95;;
65799;SDS011;52544;48.116;11.660;2022-08-25T09:46:53;18.23;;;5.20;;
65799;SDS011;52544;48.116;11.660;2022-08-25T09:49:36;7.93;;;5.70;;
65799;SDS011;52544;48.116;11.660;2022-08-25T09:57:34;8.32;;;5.20;;
65799;SDS011;52544;48.116;11.660;2022-08-25T10:05:31;7.32;;;4.90;;
65799;SDS011;52544;48.116;11.660;2022-08-25T10:08:02;7.82;;;5.07;;
65799;SDS011;52544;48.116;11.660;2022-08-25T10:10:44;9.15;;;5.43;;
65799;SDS011;52544;48.116;11.660;2022-08-25T10:13:18;10.40;;;5.25;;
65799;SDS011;52544;48.116;11.660;2022-08-25T10:15:45;9.05;;;5.00;;
65799;SDS011;52544;48.116;11.660;2022-08-25T10:18:20;11.77;;;5.28;;
65799;SDS011;52544;48.116;11.660;2022-08-25T10:23:28;8.27;;;4.82;;
65799;SDS011;52544;48.116;11.660;2022-08-25T10:25:55;7.07;;;4.93;;
65799;SDS011;52544;48.116;11.660;2022-08-25T10:33:55;7.10;;;4.75;;
65799;SDS011;52544;48.116;11.660;2022-08-25T10:37:05;7.00;;;4.88;;
65799;SDS011;52544;48.116;11.660;2022-08-25T10:39:40;8.02;;;4.90;;
65799;SDS011;52544;48.116;11.660;2022-08-25T10:42:35;8.80;;;5.32;;
65799;SDS011;52544;48.116;11.660;2022-08-25T10:45:15;6.45;;;4.80;;
65799;SDS011;52544;48.116;11.660;2022-08-25T10:50:39;7.80;;;4.57;;
65799;SDS011;52544;48.116;11.660;2022-08-25T10:53:28;6.43;;;5.00;;
65799;SDS011;52544;48.116;11.660;2022-08-25T11:04:41;12.43;;;5.38;;
65799;SDS011;52544;48.116;11.660;2022-08-25T11:09:51;9.07;;;5.55;;
65799;SDS011;52544;48.116;11.660;2022-08-25T11:12:25;11.50;;;6.00;;
65799;SDS011;52544;48.116;11.660;2022-08-25T11:14:59;8.48;;;5.55;;
65799;SDS011;52544;48.116;11.660;2022-08-25T11:17:38;9.98;;;5.68;;
65799;SDS011;52544;48.116;11.660;2022-08-25T11:20:16;9.10;;;5.53;;
65799;SDS011;52544;48.116;11.660;2022-08-25T11:25:43;7.88;;;5.70;;
65799;SDS011;52544;48.116;11.660;2022-08-25T11:28:26;8.93;;;5.90;;
65799;SDS011;52544;48.116;11.660;2022-08-25T11:30:57;7.68;;;5.93;;
65799;SDS011;52544;48.116;11.660;2022-08-25T11:33:25;9.82;;;6.05;;
65799;SDS011;52544;48.116;11.660;2022-08-25T11:36:00;11.00;;;6.10;;
65799;SDS011;52544;48.116;11.660;2022-08-25T11:43:58;12.70;;;6.32;;
65799;SDS011;52544;48.116;11.660;2022-08-25T11:46:29;8.68;;;5.43;;
65799;SDS011;52544;48.116;11.660;2022-08-25T11:57:39;10.35;;;6.13;;
65799;SDS011;52544;48.116;11.660;2022-08-25T12:00:12;13.77;;;6.10;;
65799;SDS011;52544;48.116;11.660;2022-08-25T12:03:12;18.63;;;6.20;;
65799;SDS011;52544;48.116;11.660;2022-08-25T12:08:46;9.77;;;6.05;;
65799;SDS011;52544;48.116;11.660;2022-08-25T12:14:46;10.63;;;6.63;;
65799;SDS011;52544;48.116;11.660;2022-08-25T12:32:46;12.07;;;6.63;;
65799;SDS011;52544;48.116;11.660;2022-08-25T12:37:56;15.57;;;6.32;;
65799;SDS011;52544;48.116;11.660;2022-08-25T12:40:33;13.27;;;7.15;;
65799;SDS011;52544;48.116;11.660;2022-08-25T12:45:54;14.07;;;7.38;;
65799;SDS011;52544;48.116;11.660;2022-08-25T12:59:43;12.82;;;7.50;;
65799;SDS011;52544;48.116;11.660;2022-08-25T13:05:29;14.13;;;7.40;;
65799;SDS011;52544;48.116;11.660;2022-08-25T13:10:57;13.30;;;7.25;;
65799;SDS011;52544;48.116;11.660;2022-08-25T13:16:25;14.57;;;7.45;;
65799;SDS011;52544;48.116;11.660;2022-08-25T13:18:53;13.50;;;7.43;;
65799;SDS011;52544;48.116;11.660;2022-08-25T13:21:39;9.85;;;7.03;;
65799;SDS011;52544;48.116;11.660;2022-08-25T13:24:08;18.02;;;7.72;;
65799;SDS011;52544;48.116;11.660;2022-08-25T13:26:41;12.40;;;7.35;;
65799;SDS011;52544;48.116;11.660;2022-08-25T13:31:35;17.83;;;7.57;;
65799;SDS011;52544;48.116;11.660;2022-08-25T13:34:06;16.40;;;7.30;;
65799;SDS011;52544;48.116;11.660;2022-08-25T13:36:43;15.10;;;7.50;;
65799;SDS011;52544;48.116;11.660;2022-08-25T13:39:29;19.05;;;7.60;;
65799;SDS011;52544;48.116;11.660;2022-08-25T13:41:57;12.40;;;7.18;;
65799;SDS011;52544;48.116;11.660;2022-08-25T13:44:25;14.75;;;8.25;;
65799;SDS011;52544;48.116;11.660;2022-08-25T13:47:13;13.00;;;7.30;;
65799;SDS011;52544;48.116;11.660;2022-08-25T13:49:41;15.18;;;8.05;;
65799;SDS011;52544;48.116;11.660;2022-08-25T13:52:16;13.32;;;7.28;;
65799;SDS011;52544;48.116;11.660;2022-08-25T13:54:50;12.80;;;7.28;;
65799;SDS011;52544;48.116;11.660;2022-08-25T13:57:21;16.98;;;7.30;;
65799;SDS011;52544;48.116;11.660;2022-08-25T13:59:49;12.82;;;7.18;;
65799;SDS011;52544;48.116;11.660;2022-08-25T14:05:14;14.50;;;6.97;;
65799;SDS011;52544;48.116;11.660;2022-08-25T14:07:51;12.27;;;6.43;;
65799;SDS011;52544;48.116;11.660;2022-08-25T14:15:40;22.35;;;7.47;;
65799;SDS011;52544;48.116;11.660;2022-08-25T14:18:28;13.60;;;7.40;;
65799;SDS011;52544;48.116;11.660;2022-08-25T14:20:56;20.48;;;8.10;;
65799;SDS011;52544;48.116;11.660;2022-08-25T14:23:23;17.20;;;7.85;;
65799;SDS011;52544;48.116;11.660;2022-08-25T14:25:54;13.52;;;8.05;;
65799;SDS011;52544;48.116;11.660;2022-08-25T14:28:23;16.67;;;8.10;;
65799;SDS011;52544;48.116;11.660;2022-08-25T14:30:52;20.65;;;7.85;;
65799;SDS011;52544;48.116;11.660;2022-08-25T14:33:20;16.05;;;8.18;;
65799;SDS011;52544;48.116;11.660;2022-08-25T14:35:57;19.83;;;8.18;;
65799;SDS011;52544;48.116;11.660;2022-08-25T14:38:24;16.08;;;8.65;;
65799;SDS011;52544;48.116;11.660;2022-08-25T14:40:50;16.35;;;7.95;;
65799;SDS011;52544;48.116;11.660;2022-08-25T14:43:17;19.38;;;8.80;;
65799;SDS011;52544;48.116;11.660;2022-08-25T14:45:44;12.18;;;7.90;;
65799;SDS011;52544;48.116;11.660;2022-08-25T14:48:28;26.45;;;8.52;;
65799;SDS011;52544;48.116;11.660;2022-08-25T14:50:59;19.67;;;8.20;;
65799;SDS011;52544;48.116;11.660;2022-08-25T14:53:25;25.58;;;8.77;;
65799;SDS011;52544;48.116;11.660;2022-08-25T14:55:52;21.65;;;8.82;;
65799;SDS011;52544;48.116;11.660;2022-08-25T14:58:22;18.30;;;8.07;;
65799;SDS011;52544;48.116;11.660;2022-08-25T15:00:48;21.80;;;8.98;;
65799;SDS011;52544;48.116;11.660;2022-08-25T15:03:14;16.13;;;8.13;;
65799;SDS011;52544;48.116;11.660;2022-08-25T15:05:42;12.77;;;7.47;;
65799;SDS011;52544;48.116;11.660;2022-08-25T15:08:08;22.05;;;8.45;;
65799;SDS011;52544;48.116;11.660;2022-08-25T15:10:53;17.70;;;8.43;;
65799;SDS011;52544;48.116;11.660;2022-08-25T15:13:18;23.38;;;8.77;;
65799;SDS011;52544;48.116;11.660;2022-08-25T15:15:46;15.93;;;8.23;;
65799;SDS011;52544;48.116;11.660;2022-08-25T15:18:12;17.05;;;8.07;;
65799;SDS011;52544;48.116;11.660;2022-08-25T15:20:38;22.63;;;7.93;;
65799;SDS011;52544;48.116;11.660;2022-08-25T15:23:03;18.75;;;8.60;;
65799;SDS011;52544;48.116;11.660;2022-08-25T15:25:29;15.23;;;8.00;;
65799;SDS011;52544;48.116;11.660;2022-08-25T15:27:54;25.85;;;8.32;;
65799;SDS011;52544;48.116;11.660;2022-08-25T15:30:21;14.43;;;8.02;;
65799;SDS011;52544;48.116;11.660;2022-08-25T15:32:46;19.38;;;8.80;;
65799;SDS011;52544;48.116;11.660;2022-08-25T15:35:12;20.58;;;8.85;;
65799;SDS011;52544;48.116;11.660;2022-08-25T15:37:37;20.25;;;8.40;;
65799;SDS011;52544;48.116;11.660;2022-08-25T15:40:03;13.80;;;8.10;;
65799;SDS011;52544;48.116;11.660;2022-08-25T15:42:30;19.42;;;8.40;;
65799;SDS011;52544;48.116;11.660;2022-08-25T15:44:59;19.33;;;8.93;;
65799;SDS011;52544;48.116;11.660;2022-08-25T15:47:24;23.20;;;8.23;;
65799;SDS011;52544;48.116;11.660;2022-08-25T15:49:50;21.58;;;8.50;;
65799;SDS011;52544;48.116;11.660;2022-08-25T15:52:42;21.10;;;8.45;;
65799;SDS011;52544;48.116;11.660;2022-08-25T15:55:08;21.70;;;8.43;;
65799;SDS011;52544;48.116;11.660;2022-08-25T15:57:34;23.48;;;8.80;;
65799;SDS011;52544;48.116;11.660;2022-08-25T16:00:01;25.33;;;9.57;;
65799;SDS011;52544;48.116;11.660;2022-08-25T16:02:28;25.80;;;8.57;;
65799;SDS011;52544;48.116;11.660;2022-08-25T16:04:53;20.95;;;8.15;;
65799;SDS011;52544;48.116;11.660;2022-08-25T16:07:19;22.00;;;8.68;;
65799;SDS011;52544;48.116;11.660;2022-08-25T16:09:45;19.70;;;7.70;;
65799;SDS011;52544;48.116;11.660;2022-08-25T16:12:11;21.05;;;8.32;;
65799;SDS011;52544;48.116;11.660;2022-08-25T16:14:37;22.73;;;8.57;;
65799;SDS011;52544;48.116;11.660;2022-08-25T16:17:03;16.05;;;7.88;;
65799;SDS011;52544;48.116;11.660;2022-08-25T16:19:29;30.05;;;8.57;;
65799;SDS011;52544;48.116;11.660;2022-08-25T16:21:55;19.88;;;7.90;;
65799;SDS011;52544;48.116;11.660;2022-08-25T16:24:21;24.48;;;8.77;;
65799;SDS011;52544;48.116;11.660;2022-08-25T16:26:47;20.38;;;8.40;;
65799;SDS011;52544;48.116;11.660;2022-08-25T16:29:14;16.10;;;8.20;;
65799;SDS011;52544;48.116;11.660;2022-08-25T16:31:40;18.02;;;8.00;;
65799;SDS011;52544;48.116;11.660;2022-08-25T16:34:06;15.90;;;8.45;;
65799;SDS011;52544;48.116;11.660;2022-08-25T16:36:31;25.95;;;8.98;;
65799;SDS011;52544;48.116;11.660;2022-08-25T16:38:57;17.98;;;7.72;;
65799;SDS011;52544;48.116;11.660;2022-08-25T16:41:26;15.20;;;8.07;;